Thunder radar more information blitzortung!


Löydät sääaseman tiedot myös:

European Weather Network

Finland Weather Exchange

Weather Underground

AWEKAS



Weather Underground säähistoriasivu

Päivittäin yhteenveto Helmikuu 27, 2017 Yksiköt:  Metriset    Englantilaiset   Molemmat
« Edellinen Päivä
Seuraava Päivä »
Päivittäin Viikoittain Kuukausittain Vuosittain Mukautettu
  Korkea: Matala: Keskiarvo:
Lämpötila: -17.8 °C -28.2 °C -23.4 °C
Kastepiste: -17.8 °C -29.1 °C -24.3 °C
Kosteus: Humidity % 78 % 87 %
Tuulen nopeus: 0 km/h 0 km/h 1.8 km/h
Tuulenpuuska: 0 km/h - -
Tuuli:- - SSE
Ilmanpaine: 0 hPa 33741.5 hPa -
Sade: 0 mm    
Historical Graphs
 
 
Taulukkotiedot Helmikuu 27, 2017
Aika Lämpötila Kastepiste Ilmanpaine Tuuli Tuulen nopeus Tuulenpuuska Kosteus Sademäärä (tunneittain)
-17.8 °C -17.8 °C 0 hPa Calm     Humidity % 0 mm
00:00 -25.6 °C -26.3 °C 33856.6 hPa Calm     89 % 0 mm
00:15 -25.8 °C -26.7 °C 33856.6 hPa Calm     88 % 0 mm
00:30 -26 °C -26.9 °C 33866.8 hPa Calm     88 % 0 mm
00:45 -26.2 °C -27.1 °C 33866.8 hPa Calm     88 % 0 mm
01:00 -26.5 °C -27.4 °C 33866.8 hPa Calm     88 % 0 mm
01:15 -26.6 °C -27.4 °C 33866.8 hPa Calm     88 % 0 mm
01:30 -26.7 °C -27.6 °C 33866.8 hPa Calm     88 % 0 mm
01:45 -26.9 °C -27.7 °C 33880.3 hPa Calm     88 % 0 mm
02:00 -26.9 °C -27.8 °C 33880.3 hPa Calm     88 % 0 mm
02:15 -26.8 °C -27.6 °C 33890.5 hPa Calm     89 % 0 mm
02:30 -26.7 °C -27.4 °C 33880.3 hPa Calm     89 % 0 mm
02:45 -26.7 °C -27.6 °C 33890.5 hPa Calm     88 % 0 mm
03:00 -26.8 °C -27.7 °C 33890.5 hPa Calm     88 % 0 mm
03:15 -26.9 °C -27.8 °C 33900.6 hPa Calm     88 % 0 mm
03:30 -27.1 °C -27.9 °C 33890.5 hPa Calm     88 % 0 mm
03:45 -27.2 °C -28.1 °C 33914.2 hPa Calm     87 % 0 mm
04:00 -27.3 °C -28.2 °C 33914.2 hPa Calm     87 % 0 mm
04:15 -27.3 °C -28.2 °C 33914.2 hPa Calm     88 % 0 mm
04:30 -27.6 °C -28.4 °C 33924.3 hPa Calm     87 % 0 mm
04:45 -27.6 °C -28.6 °C 33924.3 hPa Calm     87 % 0 mm
05:00 -27.7 °C -28.7 °C 33924.3 hPa Calm     87 % 0 mm
05:15 -27.9 °C -28.9 °C 33924.3 hPa Calm     86 % 0 mm
05:30 -28 °C -29 °C 33924.3 hPa Calm     86 % 0 mm
05:45 -28.1 °C -29.1 °C 33924.3 hPa Calm     86 % 0 mm
06:00 -28.1 °C -29 °C 33937.9 hPa Calm     87 % 0 mm
06:15 -28.1 °C -28.9 °C 33924.3 hPa Calm     88 % 0 mm
06:30 -28 °C -28.9 °C 33924.3 hPa Calm     87 % 0 mm
06:45 -28.1 °C -29.1 °C 33924.3 hPa Calm     86 % 0 mm
07:00 -28.1 °C -29 °C 33937.9 hPa Calm     87 % 0 mm
07:15 -28.2 °C -29.1 °C 33937.9 hPa Calm     87 % 0 mm
07:30 -28.2 °C -29.1 °C 33937.9 hPa Calm     87 % 0 mm
07:45 -28.1 °C -29 °C 33924.3 hPa Calm     87 % 0 mm
08:00 -28.2 °C -29.1 °C 33924.3 hPa Calm     87 % 0 mm
08:15 -28.2 °C -29.1 °C 33937.9 hPa Calm     87 % 0 mm
08:30 -28.1 °C -29 °C 33937.9 hPa Calm     87 % 0 mm
08:45 -28 °C -28.8 °C 33937.9 hPa Calm     88 % 0 mm
09:00 -27.8 °C -28.7 °C 33937.9 hPa Calm     88 % 0 mm
09:15 -27.7 °C -28.5 °C 33937.9 hPa Calm     88 % 0 mm
09:30 -27.6 °C -28.4 °C 33937.9 hPa Calm     88 % 0 mm
09:45 -26.7 °C -27.2 °C 33948 hPa WNW 2.6 km/h 7.7 km/h 92 % 0 mm
10:00 -25.6 °C -26.1 °C 33948 hPa WSW 2.6 km/h 7.7 km/h 93 % 0 mm
10:15 -24.9 °C -25.4 °C 33948 hPa SSW 2.6 km/h 5.1 km/h 93 % 0 mm
10:30 -24.8 °C -25.5 °C 33948 hPa Calm   5.1 km/h 90 % 0 mm
10:45 -24.8 °C -25.6 °C 33948 hPa Calm   5.1 km/h 90 % 0 mm
11:00 -24.5 °C -25.2 °C 33937.9 hPa Calm     91 % 0 mm
11:15 -23.9 °C -24.5 °C 33937.9 hPa Calm   7.7 km/h 92 % 0 mm
11:30 -23.4 °C -24.1 °C 33937.9 hPa Calm   7.7 km/h 92 % 0 mm
11:45 -23 °C -23.7 °C 33937.9 hPa Calm   7.7 km/h 91 % 0 mm
12:00 -22.7 °C -23.4 °C 33937.9 hPa SSE 5.1 km/h 12.9 km/h 90 % 0 mm
12:15 -22.3 °C -23.1 °C 33924.3 hPa Calm   10.3 km/h 90 % 0 mm
12:30 -22 °C -22.9 °C 33924.3 hPa SSE 2.6 km/h 12.9 km/h 88 % 0 mm
12:45 -21.8 °C -22.8 °C 33937.9 hPa SSE 2.6 km/h 12.9 km/h 87 % 0 mm
13:00 -21.6 °C -22.7 °C 33924.3 hPa SSE 5.1 km/h 15.6 km/h 86 % 0 mm
13:15 -21.5 °C -22.7 °C 33924.3 hPa South 5.1 km/h 12.9 km/h 85 % 0 mm
13:30 -21.3 °C -22.6 °C 33937.9 hPa SE 2.6 km/h 12.9 km/h 85 % 0 mm
13:45 -21.2 °C -22.5 °C 33924.3 hPa South 2.6 km/h 18.2 km/h 84 % 0 mm
14:00 -21 °C -22.3 °C 33914.2 hPa SE 2.6 km/h 20.8 km/h 84 % 0 mm
14:15 -20.8 °C -22.2 °C 33914.2 hPa SSE 2.6 km/h 15.6 km/h 83 % 0 mm
14:30 -20.7 °C -22 °C 33914.2 hPa Calm   5.1 km/h 84 % 0 mm
14:45 -20.7 °C -21.9 °C 33914.2 hPa Calm   5.1 km/h 84 % 0 mm
15:00 -20.6 °C -21.8 °C 33914.2 hPa Calm     84 % 0 mm
15:15 -20.4 °C -21.7 °C 33900.6 hPa Calm   10.3 km/h 84 % 0 mm
15:30 -20.3 °C -21.8 °C 33900.6 hPa South 2.6 km/h 12.9 km/h 81 % 0 mm
15:45 -20.1 °C -21.7 °C 33890.5 hPa Calm   20.8 km/h 81 % 0 mm
16:00 -19.9 °C -21.6 °C 33880.3 hPa SSE 2.6 km/h 18.2 km/h 80 % 0 mm
16:15 -19.8 °C -21.6 °C 33880.3 hPa South 5.1 km/h 23.3 km/h 78 % 0 mm
16:30 -19.9 °C -21.6 °C 33866.8 hPa Calm   10.3 km/h 79 % 0 mm
16:45 -19.9 °C -21.6 °C 33856.6 hPa SSE 2.6 km/h 15.6 km/h 80 % 0 mm
17:00 -20 °C -21.6 °C 33856.6 hPa SE 2.6 km/h 12.9 km/h 80 % 0 mm
17:15 -20.1 °C -21.6 °C 33843.1 hPa SSE 5.1 km/h 18.2 km/h 81 % 0 mm
17:30 -19.9 °C -21.6 °C 33843.1 hPa SSE 2.6 km/h 20.8 km/h 80 % 0 mm
17:45 -19.9 °C -21.5 °C 33843.1 hPa SSE 2.6 km/h 15.6 km/h 80 % 0 mm
18:00 -19.9 °C -21.5 °C 33832.9 hPa SSE 5.1 km/h 23.3 km/h 81 % 0 mm
18:15 -19.9 °C -21.4 °C 33832.9 hPa SSE 5.1 km/h 18.2 km/h 82 % 0 mm
18:30 -19.9 °C -21.3 °C 33822.8 hPa SE 2.6 km/h 18.2 km/h 83 % 0 mm
18:45 -19.8 °C -21.1 °C 33822.8 hPa SSE 2.6 km/h 20.8 km/h 84 % 0 mm
19:00 -19.8 °C -20.9 °C 33809.2 hPa SSE 5.1 km/h 28.5 km/h 85 % 0 mm
19:15 -19.7 °C -20.8 °C 33822.8 hPa SSE 2.6 km/h 23.3 km/h 87 % 0 mm
19:30 -19.7 °C -20.6 °C 33822.8 hPa SSE 2.6 km/h 15.6 km/h 89 % 0 mm
19:45 -19.7 °C -20.4 °C 33799.1 hPa SSE 5.1 km/h 20.8 km/h 90 % 0 mm
20:00 -19.6 °C -20.3 °C 33799.1 hPa SSE 5.1 km/h 20.8 km/h 91 % 0 mm
20:15 -19.6 °C -20.2 °C 33788.9 hPa South 5.1 km/h 18.2 km/h 91 % 0 mm
20:30 -19.4 °C -20.2 °C 33788.9 hPa South 7.7 km/h 18.2 km/h 91 % 0 mm
20:45 -19.4 °C -20.2 °C 33788.9 hPa South 2.6 km/h 23.3 km/h 91 % 0 mm
21:00 -19.4 °C -20.1 °C 33788.9 hPa SSE 5.1 km/h 20.8 km/h 92 % 0 mm
21:15 -19.4 °C -20 °C 33775.4 hPa SSE 2.6 km/h 20.8 km/h 93 % 0 mm
21:30 -19.4 °C -19.9 °C 33775.4 hPa South 2.6 km/h 15.6 km/h 93 % 0 mm
21:45 -19.4 °C -19.9 °C 33765.2 hPa South 2.6 km/h 18.2 km/h 94 % 0 mm
22:00 -19.3 °C -19.8 °C 33765.2 hPa SSE 2.6 km/h 15.6 km/h 94 % 0 mm
22:15 -19.2 °C -19.7 °C 33765.2 hPa South 5.1 km/h 23.3 km/h 94 % 0 mm
22:30 -19.1 °C -19.5 °C 33751.6 hPa SSE 5.1 km/h 25.9 km/h 94 % 0 mm
22:45 -18.9 °C -19.4 °C 33751.6 hPa South 7.7 km/h 25.9 km/h 94 % 0 mm
23:00 -18.8 °C -19.3 °C 33751.6 hPa South 5.1 km/h 18.2 km/h 94 % 0 mm
23:15 -18.8 °C -19.2 °C 33751.6 hPa SSW 5.1 km/h 15.6 km/h 94 % 0 mm
23:30 -18.7 °C -19.2 °C 33751.6 hPa SSW 2.6 km/h 10.3 km/h 94 % 0 mm
23:45 -18.7 °C -19.1 °C 33741.5 hPa SSE 5.1 km/h 25.9 km/h 94 % 0 mm
Esan sääasema
Terveisin Weather Underground - 2.75 mb

Alkuperäinen skripti  Jim McMurry - jmcmurry@mwt.net Sovitettu myös templatelle  Wim van der Kuil - Leuven-Template.eu

Laitteet joita käytämme:

Sääasema
Davis VP2

Sääasemaohjelma
Cumulus

Sääaseman tietokone
Asus EeePC

Palveluntarjoaja
Suncomet

Davis VP2

Cumulus

Asus EeePC

Suncomet